Time;durP1;ratioP1;P1;durP2;ratioP2;P2;SDS_P1;SDS_P2;PMS_P1;PMS_P2;Temp;Humidity;BMP_temperature;BMP_pressure;BME280_temperature;BME280_humidity;BME280_pressure;Samples;Min_cycle;Max_cycle;Signal;HPM_P1;HPM_P2
2024/01/12 00:01:58;;;;;;;79.57;49.33;;;0.80;99.90;;;;;;7379434;19;20082;-74
2024/01/12 00:04:24;;;;;;;76.88;46.47;;;0.80;99.90;;;;;;7379577;19;20471;-74
2024/01/12 00:06:50;;;;;;;78.80;48.67;;;0.80;99.90;;;;;;7381110;19;20026;-74
2024/01/12 00:09:16;;;;;;;81.75;47.35;;;0.90;99.90;;;;;;7380564;19;20039;-74
2024/01/12 00:11:45;;;;;;;88.53;49.72;;;0.90;99.90;;;;;;7379390;19;20590;-74
2024/01/12 00:14:14;;;;;;;87.60;51.13;;;0.90;99.90;;;;;;7378300;19;20482;-74
2024/01/12 00:17:00;;;;;;;87.57;49.63;;;0.90;99.90;;;;;;7376709;19;20054;-74
2024/01/12 00:19:26;;;;;;;82.50;48.55;;;0.90;99.90;;;;;;7377658;19;20014;-74
2024/01/12 00:21:54;;;;;;;82.80;48.15;;;1.00;99.90;;;;;;7375999;19;20179;-74
2024/01/12 00:24:20;;;;;;;76.60;44.97;;;1.00;99.90;;;;;;7378181;19;20453;-67
2024/01/12 00:26:47;;;;;;;70.57;43.05;;;1.10;99.90;;;;;;7376360;19;20643;-74
2024/01/12 00:29:13;;;;;;;74.22;43.53;;;1.00;99.90;;;;;;7378269;19;20024;-74
2024/01/12 00:31:40;;;;;;;82.10;44.85;;;1.00;99.90;;;;;;7378259;19;20015;-74
2024/01/12 00:34:06;;;;;;;71.28;42.78;;;1.10;99.90;;;;;;7373290;19;20709;-74
2024/01/12 00:36:33;;;;;;;67.15;40.50;;;1.10;99.90;;;;;;7376440;19;20830;-74
2024/01/12 00:38:59;;;;;;;64.63;38.75;;;1.20;99.90;;;;;;7376953;19;20018;-74
2024/01/12 00:41:25;;;;;;;67.95;39.35;;;1.20;99.90;;;;;;7377600;19;20010;-74
2024/01/12 00:43:51;;;;;;;55.08;32.80;;;1.20;99.90;;;;;;7376772;19;20067;-74
2024/01/12 00:46:18;;;;;;;60.35;34.50;;;1.20;99.90;;;;;;7374117;19;20035;-75
2024/01/12 00:48:44;;;;;;;66.55;35.42;;;1.20;99.90;;;;;;7375852;19;20018;-74
2024/01/12 00:51:11;;;;;;;57.25;34.83;;;1.30;99.90;;;;;;7374045;19;20085;-67
2024/01/12 00:53:38;;;;;;;56.72;32.22;;;1.30;99.90;;;;;;7376362;19;20017;-67
2024/01/12 00:56:04;;;;;;;54.28;30.80;;;1.30;99.90;;;;;;7373904;19;20029;-67
2024/01/12 00:58:31;;;;;;;54.83;31.92;;;1.30;99.90;;;;;;7376653;19;20575;-67
2024/01/12 01:00:58;;;;;;;50.17;30.65;;;1.30;99.90;;;;;;7374746;19;20023;-67
2024/01/12 01:03:46;;;;;;;55.53;29.52;;;1.30;99.90;;;;;;7376838;19;20017;-67
2024/01/12 01:06:13;;;;;;;50.90;30.15;;;1.40;99.90;;;;;;7376847;19;20026;-67
2024/01/12 01:08:39;;;;;;;45.67;25.52;;;1.40;99.90;;;;;;7374380;19;20063;-67
2024/01/12 01:11:06;;;;;;;53.55;27.40;;;1.40;99.90;;;;;;7378911;19;20019;-67
2024/01/12 01:13:35;;;;;;;45.65;26.15;;;1.40;99.90;;;;;;7371305;19;20018;-66
2024/01/12 01:16:03;;;;;;;43.70;22.92;;;1.40;99.90;;;;;;7376740;19;20055;-75
2024/01/12 01:18:30;;;;;;;48.40;23.80;;;1.40;99.90;;;;;;7368995;19;20029;-67
2024/01/12 01:20:59;;;;;;;39.03;22.80;;;1.50;99.90;;;;;;7376444;19;20052;-67
2024/01/12 01:23:25;;;;;;;42.10;22.15;;;1.50;99.90;;;;;;7372978;19;20383;-75
2024/01/12 01:25:53;;;;;;;41.55;21.75;;;1.50;99.90;;;;;;7376369;19;20014;-75
2024/01/12 01:28:20;;;;;;;39.53;23.98;;;1.50;99.90;;;;;;7376793;19;20113;-75
2024/01/12 01:30:46;;;;;;;45.00;23.92;;;1.50;99.90;;;;;;7373580;19;20854;-75
2024/01/12 01:33:13;;;;;;;43.30;24.02;;;1.50;99.90;;;;;;7378546;19;20340;-76
2024/01/12 01:35:59;;;;;;;39.42;21.52;;;1.50;99.90;;;;;;7374761;19;20019;-75
2024/01/12 01:38:25;;;;;;;40.40;21.90;;;1.50;99.90;;;;;;7373806;19;21951;-75
2024/01/12 01:40:51;;;;;;;33.45;18.33;;;1.50;99.90;;;;;;7373924;19;20023;-75
2024/01/12 01:43:18;;;;;;;31.50;17.52;;;1.50;99.90;;;;;;7373525;19;20075;-75
2024/01/12 01:45:44;;;;;;;34.15;18.48;;;1.50;99.90;;;;;;7375188;19;20051;-75
2024/01/12 01:48:14;;;;;;;35.60;17.55;;;1.60;99.90;;;;;;7374856;19;20022;-75
2024/01/12 01:50:44;;;;;;;27.73;14.68;;;1.50;99.90;;;;;;7375396;19;20022;-75
2024/01/12 01:53:10;;;;;;;31.13;14.63;;;1.60;99.90;;;;;;7376304;19;20018;-67
2024/01/12 01:55:36;;;;;;;27.05;15.57;;;1.70;99.90;;;;;;7373661;19;20022;-67
2024/01/12 01:58:07;;;;;;;37.25;17.25;;;1.80;99.90;;;;;;7374473;19;20022;-67
2024/01/12 02:00:34;;;;;;;32.60;16.70;;;1.80;99.90;;;;;;7375474;19;20028;-75
2024/01/12 02:03:02;;;;;;;23.42;14.27;;;1.80;99.90;;;;;;7374001;19;20010;-67
2024/01/12 02:05:30;;;;;;;26.00;14.13;;;1.80;99.90;;;;;;7371554;19;20026;-66
2024/01/12 02:07:57;;;;;;;28.58;13.60;;;1.80;99.90;;;;;;7374604;19;20029;-66
2024/01/12 02:10:23;;;;;;;24.83;13.05;;;1.80;99.90;;;;;;7375766;19;20018;-67
2024/01/12 02:12:49;;;;;;;23.17;12.88;;;1.80;99.90;;;;;;7373606;19;20029;-67
2024/01/12 02:15:18;;;;;;;27.45;12.80;;;1.90;99.90;;;;;;7371170;19;20021;-67
2024/01/12 02:17:44;;;;;;;27.17;13.00;;;1.90;99.90;;;;;;7373401;19;20087;-75
2024/01/12 02:20:11;;;;;;;20.48;11.75;;;1.90;99.90;;;;;;7371244;19;20033;-74
2024/01/12 02:22:37;;;;;;;23.60;11.15;;;1.90;99.90;;;;;;7368864;19;20022;-74
2024/01/12 02:25:04;;;;;;;21.38;11.23;;;1.90;99.90;;;;;;7377160;19;20050;-74
2024/01/12 02:27:30;;;;;;;21.30;10.48;;;1.90;99.90;;;;;;7374041;19;20498;-75
2024/01/12 02:29:57;;;;;;;20.92;9.77;;;1.90;99.90;;;;;;7375579;19;20018;-75
2024/01/12 02:32:23;;;;;;;21.40;10.25;;;1.90;99.90;;;;;;7376710;19;20028;-74
2024/01/12 02:34:51;;;;;;;29.23;10.32;;;1.90;99.90;;;;;;7370110;19;20537;-66
2024/01/12 02:37:20;;;;;;;24.05;10.80;;;1.90;99.90;;;;;;7374878;19;20022;-66
2024/01/12 02:39:49;;;;;;;21.70;9.73;;;1.90;99.90;;;;;;7372419;19;20073;-66
2024/01/12 02:42:15;;;;;;;22.00;9.38;;;1.90;99.90;;;;;;7372376;19;20018;-67
2024/01/12 02:44:41;;;;;;;22.52;9.63;;;1.90;99.90;;;;;;7370071;19;20114;-67
2024/01/12 02:47:08;;;;;;;20.52;9.70;;;2.00;99.90;;;;;;7372670;19;20021;-66
2024/01/12 02:49:34;;;;;;;22.95;10.50;;;2.00;99.90;;;;;;7373546;19;20604;-66
2024/01/12 02:52:01;;;;;;;22.75;10.07;;;2.00;99.90;;;;;;7374082;19;20021;-66
2024/01/12 02:54:27;;;;;;;21.33;9.43;;;2.00;99.90;;;;;;7373590;19;20026;-66
2024/01/12 02:56:54;;;;;;;20.45;9.90;;;2.00;99.90;;;;;;7371269;19;20022;-66
2024/01/12 02:59:20;;;;;;;19.08;9.63;;;2.00;99.90;;;;;;7370100;19;20006;-66
2024/01/12 03:01:46;;;;;;;22.80;9.50;;;2.00;99.90;;;;;;7373285;19;20772;-66
2024/01/12 03:04:13;;;;;;;18.08;9.63;;;2.10;99.90;;;;;;7374553;19;20401;-66
2024/01/12 03:06:40;;;;;;;15.82;9.40;;;2.10;99.90;;;;;;7371129;19;20034;-66
2024/01/12 03:09:10;;;;;;;17.15;9.90;;;2.10;99.90;;;;;;7373354;19;20738;-67
2024/01/12 03:11:56;;;;;;;19.95;9.10;;;2.10;99.90;;;;;;7372834;19;20018;-67
2024/01/12 03:14:22;;;;;;;19.60;9.90;;;2.10;99.90;;;;;;7373993;19;20011;-67
2024/01/12 03:16:48;;;;;;;20.20;9.68;;;2.10;99.90;;;;;;7376638;19;20018;-67
2024/01/12 03:19:14;;;;;;;21.13;9.85;;;2.10;99.90;;;;;;7382957;19;20014;-67
2024/01/12 03:21:41;;;;;;;20.13;9.20;;;2.00;99.90;;;;;;7378022;19;20021;-67
2024/01/12 03:24:07;;;;;;;17.95;9.73;;;2.10;99.90;;;;;;7381036;19;20018;-67
2024/01/12 03:26:53;;;;;;;21.80;8.88;;;2.00;99.90;;;;;;7380498;19;20022;-67
2024/01/12 03:29:20;;;;;;;19.52;9.40;;;1.90;99.90;;;;;;7379733;19;20078;-67
2024/01/12 03:31:47;;;;;;;16.48;9.73;;;2.00;99.90;;;;;;7381649;19;20119;-76
2024/01/12 03:34:13;;;;;;;24.17;10.13;;;2.00;99.90;;;;;;7378465;19;20023;-67
2024/01/12 03:36:40;;;;;;;19.42;9.88;;;2.00;99.90;;;;;;7379870;19;20483;-67
2024/01/12 03:39:26;;;;;;;15.57;9.88;;;1.90;99.90;;;;;;7378750;19;20014;-76
2024/01/12 03:41:52;;;;;;;21.42;9.55;;;1.90;99.90;;;;;;7377308;19;20018;-75
2024/01/12 03:44:18;;;;;;;16.70;10.02;;;1.90;99.90;;;;;;7379179;19;20773;-76
2024/01/12 03:46:44;;;;;;;23.38;10.75;;;1.90;99.90;;;;;;7379162;19;20018;-75
2024/01/12 03:49:10;;;;;;;20.52;9.75;;;1.90;99.90;;;;;;7377022;19;20022;-75
2024/01/12 03:51:37;;;;;;;20.60;10.73;;;1.90;99.90;;;;;;7380743;19;20014;-67
2024/01/12 03:54:05;;;;;;;21.50;9.73;;;1.80;99.90;;;;;;7378959;19;20647;-66
2024/01/12 03:56:32;;;;;;;18.50;10.25;;;1.80;99.90;;;;;;7379278;19;20895;-67
2024/01/12 03:58:58;;;;;;;19.13;9.88;;;1.80;99.90;;;;;;7377568;19;20022;-75
2024/01/12 04:01:24;;;;;;;20.27;10.50;;;1.70;99.90;;;;;;7381259;19;20018;-76
2024/01/12 04:03:50;;;;;;;15.68;9.90;;;1.70;99.90;;;;;;7382369;19;20019;-75
2024/01/12 04:06:18;;;;;;;18.08;8.93;;;1.70;99.90;;;;;;7382432;19;20780;-75
2024/01/12 04:08:45;;;;;;;19.25;10.05;;;1.70;99.90;;;;;;7379731;19;21578;-67
2024/01/12 04:11:21;;;;;;;17.80;10.50;;;1.70;99.90;;;;;;7378533;19;20010;-67
2024/01/12 04:13:47;;;;;;;14.63;8.90;;;1.70;99.90;;;;;;7382566;19;20052;-67
2024/01/12 04:16:13;;;;;;;21.67;10.60;;;1.70;99.90;;;;;;7380719;19;20642;-75
2024/01/12 04:18:40;;;;;;;16.00;9.40;;;1.70;99.90;;;;;;7373783;19;20018;-76
2024/01/12 04:21:06;;;;;;;17.02;9.20;;;1.70;99.90;;;;;;7375042;19;20044;-75
2024/01/12 04:23:32;;;;;;;16.55;10.18;;;1.60;99.90;;;;;;7376277;19;20052;-75
2024/01/12 04:26:18;;;;;;;17.63;9.38;;;1.60;99.90;;;;;;7372542;19;20049;-76
2024/01/12 04:28:44;;;;;;;23.30;10.15;;;1.50;99.90;;;;;;7374528;19;20010;-76
2024/01/12 04:31:10;;;;;;;17.90;8.95;;;1.40;99.90;;;;;;7375554;19;20014;-76
2024/01/12 04:33:37;;;;;;;16.20;9.35;;;1.30;99.90;;;;;;7375127;19;20015;-67
2024/01/12 04:36:06;;;;;;;18.90;9.75;;;1.20;99.90;;;;;;7373145;19;20085;-67
2024/01/12 04:38:52;;;;;;;16.15;9.68;;;1.10;99.90;;;;;;7375596;19;20018;-67
2024/01/12 04:41:19;;;;;;;15.05;9.10;;;1.00;99.90;;;;;;7373225;19;20026;-66
2024/01/12 04:43:45;;;;;;;19.13;10.13;;;1.00;99.90;;;;;;7374032;19;20499;-67
2024/01/12 04:46:12;;;;;;;14.32;9.30;;;1.00;99.90;;;;;;7371796;19;20019;-76
2024/01/12 04:48:38;;;;;;;19.85;10.07;;;1.00;99.90;;;;;;7375855;19;20025;-68
2024/01/12 04:51:04;;;;;;;18.27;10.32;;;1.00;99.90;;;;;;7373029;19;20521;-75
2024/01/12 04:53:31;;;;;;;20.90;10.00;;;1.10;99.90;;;;;;7374451;19;20401;-67
2024/01/12 04:55:57;;;;;;;23.15;9.95;;;1.10;99.90;;;;;;7369038;19;20037;-68
2024/01/12 04:58:23;;;;;;;21.20;10.32;;;1.10;99.90;;;;;;7376796;19;20018;-67
2024/01/12 05:00:50;;;;;;;26.35;11.35;;;1.20;99.90;;;;;;7372471;19;20384;-67
2024/01/12 05:03:16;;;;;;;15.65;10.20;;;1.20;99.90;;;;;;7376253;19;20074;-68
2024/01/12 05:05:42;;;;;;;23.55;11.32;;;1.20;99.90;;;;;;7373372;19;20018;-75
2024/01/12 05:08:09;;;;;;;17.05;9.93;;;1.30;99.90;;;;;;7374554;19;20019;-76
2024/01/12 05:10:35;;;;;;;17.42;10.20;;;1.30;99.90;;;;;;7374333;19;20018;-76
2024/01/12 05:13:01;;;;;;;21.50;11.00;;;1.30;99.90;;;;;;7375912;19;20015;-75
2024/01/12 05:15:27;;;;;;;18.25;9.85;;;1.30;99.90;;;;;;7373194;19;20022;-67
2024/01/12 05:17:54;;;;;;;21.13;10.65;;;1.40;99.90;;;;;;7374641;19;20021;-75
2024/01/12 05:20:21;;;;;;;22.92;10.48;;;1.50;99.90;;;;;;7372100;19;20039;-75
2024/01/12 05:22:48;;;;;;;20.58;10.80;;;1.60;99.90;;;;;;7376210;19;20094;-68
2024/01/12 05:25:14;;;;;;;21.92;10.45;;;1.60;99.90;;;;;;7376214;19;20905;-68
2024/01/12 05:27:40;;;;;;;23.83;10.68;;;1.70;99.90;;;;;;7373978;19;20374;-67
2024/01/12 05:30:07;;;;;;;21.15;10.63;;;1.70;99.90;;;;;;7372558;19;20042;-67
2024/01/12 05:32:33;;;;;;;17.25;9.38;;;1.70;99.90;;;;;;7375688;19;20014;-68
2024/01/12 05:35:19;;;;;;;16.45;9.95;;;1.80;99.90;;;;;;7370672;19;20082;-67
2024/01/12 05:37:45;;;;;;;19.60;9.63;;;1.80;99.90;;;;;;7372653;19;20490;-67
2024/01/12 05:40:32;;;;;;;15.60;8.90;;;1.80;99.90;;;;;;7374056;19;20067;-75
2024/01/12 05:42:58;;;;;;;18.30;9.63;;;1.80;99.90;;;;;;7370682;19;20029;-75
2024/01/12 05:45:24;;;;;;;22.77;10.27;;;1.80;99.90;;;;;;7374277;19;20028;-76
2024/01/12 05:47:50;;;;;;;19.67;9.68;;;1.80;99.90;;;;;;7369912;19;20589;-75
2024/01/12 05:50:16;;;;;;;17.90;9.13;;;1.70;99.90;;;;;;7372162;19;21581;-75
2024/01/12 05:52:43;;;;;;;16.35;9.20;;;1.70;99.90;;;;;;7371602;19;20104;-75
2024/01/12 05:55:12;;;;;;;19.63;9.88;;;1.70;99.90;;;;;;7369461;19;20081;-75
2024/01/12 05:57:38;;;;;;;17.08;9.02;;;1.70;99.90;;;;;;7372915;19;20613;-75
2024/01/12 06:00:25;;;;;;;26.20;8.82;;;1.60;99.90;;;;;;7370002;19;20530;-76
2024/01/12 06:02:52;;;;;;;16.88;8.48;;;1.70;99.90;;;;;;7368830;19;20060;-75
2024/01/12 06:05:18;;;;;;;22.77;9.50;;;1.70;99.90;;;;;;7371946;19;20033;-75
2024/01/12 06:07:44;;;;;;;22.42;10.07;;;1.60;99.90;;;;;;7370063;19;20787;-74
2024/01/12 06:10:14;;;;;;;21.52;10.30;;;1.70;99.90;;;;;;7371235;19;20479;-75
2024/01/12 06:12:40;;;;;;;18.92;9.18;;;1.70;99.90;;;;;;7371387;19;20026;-74
2024/01/12 06:15:09;;;;;;;22.08;9.68;;;1.70;99.90;;;;;;7369286;19;20398;-75
2024/01/12 06:17:36;;;;;;;16.23;9.55;;;1.70;99.90;;;;;;7371594;19;20926;-74
2024/01/12 06:20:03;;;;;;;23.17;10.43;;;1.70;99.90;;;;;;7368038;19;20038;-74
2024/01/12 06:22:29;;;;;;;28.08;10.55;;;1.70;99.90;;;;;;7371357;19;20017;-74
2024/01/12 06:24:56;;;;;;;18.90;9.55;;;1.80;99.90;;;;;;7371354;19;20801;-75
2024/01/12 06:27:24;;;;;;;18.35;9.25;;;1.70;99.90;;;;;;7372761;19;20022;-75
2024/01/12 06:29:51;;;;;;;24.95;8.90;;;1.80;99.90;;;;;;7367714;19;20018;-67
2024/01/12 06:32:20;;;;;;;21.85;9.95;;;1.80;99.90;;;;;;7371988;19;20491;-67
2024/01/12 06:34:47;;;;;;;27.70;10.10;;;1.80;99.90;;;;;;7370083;19;20094;-68
2024/01/12 06:37:13;;;;;;;17.58;9.00;;;1.80;99.90;;;;;;7370658;19;20021;-68
2024/01/12 06:39:42;;;;;;;19.35;9.73;;;1.80;99.90;;;;;;7370227;19;20022;-67
2024/01/12 06:42:09;;;;;;;24.30;9.52;;;1.80;99.90;;;;;;7372566;19;20019;-74
2024/01/12 06:44:40;;;;;;;18.83;9.45;;;1.90;99.90;;;;;;7369670;19;20475;-74
2024/01/12 06:47:07;;;;;;;15.57;8.90;;;1.80;99.90;;;;;;7369957;19;20035;-75
2024/01/12 06:49:34;;;;;;;22.13;9.38;;;1.80;99.90;;;;;;7368908;19;20014;-76
2024/01/12 06:52:00;;;;;;;21.48;9.40;;;1.80;99.90;;;;;;7370989;19;20027;-67
2024/01/12 06:54:27;;;;;;;20.15;9.82;;;1.70;99.90;;;;;;7374004;19;20022;-68
2024/01/12 06:56:56;;;;;;;23.02;9.68;;;1.80;99.90;;;;;;7375273;19;20078;-67
2024/01/12 06:59:22;;;;;;;20.35;9.13;;;1.80;99.90;;;;;;7374318;19;20039;-68
2024/01/12 07:01:48;;;;;;;30.98;11.00;;;1.80;99.90;;;;;;7375225;19;20022;-67
2024/01/12 07:04:14;;;;;;;26.10;10.82;;;1.80;99.90;;;;;;7381873;19;20505;-68
2024/01/12 07:06:44;;;;;;;21.73;9.93;;;1.80;99.90;;;;;;7377689;19;20420;-76
2024/01/12 07:09:12;;;;;;;31.33;10.07;;;1.80;99.90;;;;;;7377587;19;20573;-74
2024/01/12 07:11:43;;;;;;;22.10;10.32;;;1.80;99.90;;;;;;7374290;19;20019;-75
2024/01/12 07:14:15;;;;;;;22.50;10.40;;;1.80;99.90;;;;;;7377272;19;20014;-75
2024/01/12 07:16:42;;;;;;;22.58;10.98;;;1.90;99.90;;;;;;7374730;19;20019;-75
2024/01/12 07:19:08;;;;;;;20.33;10.10;;;1.90;99.90;;;;;;7378321;19;20015;-75
2024/01/12 07:21:35;;;;;;;28.05;11.32;;;1.90;99.90;;;;;;7372672;19;20014;-75
2024/01/12 07:24:21;;;;;;;20.45;9.88;;;1.90;99.90;;;;;;7376668;19;20026;-75
2024/01/12 07:26:47;;;;;;;29.45;10.18;;;1.90;99.90;;;;;;7377750;19;20035;-67
2024/01/12 07:29:14;;;;;;;28.80;10.63;;;1.90;99.90;;;;;;7378815;19;20019;-67
2024/01/12 07:31:41;;;;;;;20.85;9.85;;;1.90;99.90;;;;;;7365853;19;20010;-75
2024/01/12 07:34:07;;;;;;;20.85;10.57;;;1.90;99.90;;;;;;7375478;19;20098;-74
2024/01/12 07:36:33;;;;;;;23.00;9.82;;;1.90;99.90;;;;;;7376211;19;20029;-68
2024/01/12 07:38:59;;;;;;;20.45;10.02;;;2.00;99.90;;;;;;7375761;19;20085;-67
2024/01/12 07:41:26;;;;;;;22.45;10.88;;;2.00;99.90;;;;;;7373084;19;20494;-75
2024/01/12 07:43:55;;;;;;;26.83;11.13;;;1.90;99.90;;;;;;7378445;19;20022;-67
2024/01/12 07:46:21;;;;;;;21.42;10.27;;;1.90;99.90;;;;;;7377305;19;20038;-67
2024/01/12 07:48:50;;;;;;;22.98;10.82;;;1.90;99.90;;;;;;7379354;19;20031;-66
2024/01/12 07:51:17;;;;;;;24.38;10.93;;;2.00;99.90;;;;;;7378850;19;20031;-67
2024/01/12 07:53:44;;;;;;;24.17;10.88;;;2.00;99.90;;;;;;7368569;19;20022;-67
2024/01/12 07:56:11;;;;;;;25.13;11.25;;;2.00;99.90;;;;;;7375648;19;20384;-67
2024/01/12 07:58:37;;;;;;;23.85;11.02;;;2.00;99.90;;;;;;7373031;19;20449;-67
2024/01/12 08:01:05;;;;;;;28.08;11.43;;;2.00;99.90;;;;;;7367221;19;20014;-67
2024/01/12 08:03:33;;;;;;;23.83;11.18;;;2.00;99.90;;;;;;7370201;19;20114;-67
2024/01/12 08:06:00;;;;;;;24.13;11.10;;;2.00;99.90;;;;;;7369347;19;20023;-67
2024/01/12 08:08:27;;;;;;;24.23;10.82;;;2.00;99.90;;;;;;7371154;19;20781;-67
2024/01/12 08:10:53;;;;;;;24.60;11.05;;;2.00;99.90;;;;;;7370826;19;20048;-67
2024/01/12 08:13:40;;;;;;;27.08;12.35;;;2.00;99.90;;;;;;7371820;19;20018;-68
2024/01/12 08:16:06;;;;;;;24.42;11.77;;;2.00;99.90;;;;;;7369269;19;20010;-67
2024/01/12 08:18:34;;;;;;;24.02;11.48;;;2.00;99.90;;;;;;7373216;19;20026;-67
2024/01/12 08:21:00;;;;;;;25.15;11.20;;;2.00;99.90;;;;;;7373837;19;20022;-67
2024/01/12 08:23:46;;;;;;;20.63;11.60;;;2.10;99.90;;;;;;7378437;19;20029;-67
2024/01/12 08:26:13;;;;;;;28.08;11.55;;;2.10;99.90;;;;;;7373236;19;20026;-67
2024/01/12 08:28:39;;;;;;;17.38;9.75;;;2.10;99.90;;;;;;7376380;19;20035;-67
2024/01/12 08:31:06;;;;;;;20.20;11.05;;;2.10;99.90;;;;;;7374698;19;20029;-68
2024/01/12 08:33:32;;;;;;;20.50;11.00;;;2.10;99.90;;;;;;7375124;19;20518;-67
2024/01/12 08:35:58;;;;;;;21.85;11.15;;;2.10;99.90;;;;;;7375012;19;20541;-67
2024/01/12 08:38:24;;;;;;;21.50;11.52;;;2.10;99.90;;;;;;7373467;19;20018;-67
2024/01/12 08:40:50;;;;;;;25.20;10.82;;;2.10;99.90;;;;;;7375556;19;20048;-67
2024/01/12 08:43:19;;;;;;;23.48;11.23;;;2.10;99.90;;;;;;7374918;19;20018;-76
2024/01/12 08:45:45;;;;;;;20.13;10.35;;;2.20;99.90;;;;;;7375122;19;20038;-76
2024/01/12 08:48:11;;;;;;;18.33;10.07;;;2.20;99.90;;;;;;7373502;19;20325;-76
2024/01/12 08:50:38;;;;;;;21.50;10.30;;;2.20;99.90;;;;;;7374977;19;20190;-74
2024/01/12 08:53:04;;;;;;;19.42;10.43;;;2.20;99.90;;;;;;7375652;19;20017;-76
2024/01/12 08:55:30;;;;;;;25.05;9.80;;;2.20;99.90;;;;;;7372524;19;20070;-76
2024/01/12 08:57:56;;;;;;;22.58;11.30;;;2.30;99.90;;;;;;7371659;19;20524;-76
2024/01/12 09:00:23;;;;;;;18.98;9.40;;;2.30;99.90;;;;;;7375124;19;20025;-76
2024/01/12 09:03:09;;;;;;;20.42;9.85;;;2.30;99.90;;;;;;7372567;19;20459;-76
2024/01/12 09:05:35;;;;;;;21.75;9.90;;;2.30;99.90;;;;;;7373397;19;20081;-76
2024/01/12 09:08:02;;;;;;;26.42;9.65;;;2.40;99.90;;;;;;7371644;19;20050;-76
2024/01/12 09:10:28;;;;;;;15.95;9.75;;;2.40;99.90;;;;;;7372553;19;20543;-76
2024/01/12 09:12:55;;;;;;;20.02;9.95;;;2.40;99.90;;;;;;7372748;19;20031;-76
2024/01/12 09:15:22;;;;;;;17.02;9.27;;;2.50;99.90;;;;;;7370462;19;20035;-76
2024/01/12 09:17:48;;;;;;;24.45;10.40;;;2.50;99.90;;;;;;7372863;19;20014;-67
2024/01/12 09:20:15;;;;;;;16.83;9.90;;;2.50;99.90;;;;;;7374047;19;20010;-68
2024/01/12 09:22:41;;;;;;;20.65;9.50;;;2.50;99.90;;;;;;7374049;19;20050;-71
2024/01/12 09:25:08;;;;;;;21.55;9.90;;;2.50;99.90;;;;;;7372898;19;20099;-66
2024/01/12 09:27:34;;;;;;;22.10;9.65;;;2.60;99.90;;;;;;7371543;19;20025;-68
2024/01/12 09:30:21;;;;;;;18.70;9.05;;;2.60;99.90;;;;;;7373629;19;20019;-67
2024/01/12 09:32:47;;;;;;;16.83;9.40;;;2.60;99.90;;;;;;7373268;19;20645;-78
2024/01/12 09:35:14;;;;;;;23.45;10.13;;;2.60;99.90;;;;;;7370232;19;20068;-67
2024/01/12 09:37:40;;;;;;;21.75;9.27;;;2.70;99.90;;;;;;7374402;19;20019;-67
2024/01/12 09:40:07;;;;;;;18.23;8.20;;;2.70;99.90;;;;;;7372607;19;20021;-66
2024/01/12 09:42:34;;;;;;;19.88;9.02;;;2.70;99.90;;;;;;7369850;19;20055;-77
2024/01/12 09:45:01;;;;;;;17.30;8.35;;;2.70;99.90;;;;;;7367140;19;20014;-67
2024/01/12 09:47:27;;;;;;;19.52;8.13;;;2.80;99.90;;;;;;7367936;19;21380;-67
2024/01/12 09:49:54;;;;;;;21.38;9.02;;;2.80;99.90;;;;;;7360995;19;20022;-67
2024/01/12 09:52:21;;;;;;;15.23;8.23;;;2.90;99.90;;;;;;7369624;19;20035;-66
2024/01/12 09:54:47;;;;;;;16.02;7.75;;;2.90;99.90;;;;;;7366714;19;20025;-67
2024/01/12 09:57:15;;;;;;;20.25;8.98;;;2.90;99.90;;;;;;7367178;19;20025;-66
2024/01/12 09:59:44;;;;;;;14.90;7.38;;;3.00;99.90;;;;;;7371696;19;20093;-66
2024/01/12 10:02:14;;;;;;;14.02;6.90;;;3.00;99.90;;;;;;7369054;19;20022;-67
2024/01/12 10:04:41;;;;;;;21.95;8.23;;;3.10;99.90;;;;;;7369622;19;20021;-66
2024/01/12 10:07:08;;;;;;;19.50;7.45;;;3.10;99.90;;;;;;7367420;19;20444;-66
2024/01/12 10:09:34;;;;;;;21.55;7.68;;;3.10;99.90;;;;;;7369265;19;20448;-66
2024/01/12 10:12:00;;;;;;;18.20;7.45;;;3.20;99.90;;;;;;7368589;19;20373;-67
2024/01/12 10:14:29;;;;;;;17.63;6.50;;;3.20;99.90;;;;;;7369969;19;20032;-66
2024/01/12 10:16:57;;;;;;;18.60;7.13;;;3.20;99.90;;;;;;7365634;19;20475;-67
2024/01/12 10:19:24;;;;;;;22.00;7.50;;;3.30;99.90;;;;;;7372481;19;20015;-66
2024/01/12 10:21:51;;;;;;;16.77;6.53;;;3.30;99.90;;;;;;7367984;19;20024;-66
2024/01/12 10:24:19;;;;;;;20.85;6.80;;;3.30;99.90;;;;;;7371754;19;20026;-66
2024/01/12 10:26:50;;;;;;;18.55;7.18;;;3.40;99.90;;;;;;7366594;19;20078;-67
2024/01/12 10:29:18;;;;;;;17.92;6.70;;;3.40;99.90;;;;;;7367624;19;20056;-67
2024/01/12 10:31:45;;;;;;;16.88;6.38;;;3.50;99.90;;;;;;7363427;19;20048;-67
2024/01/12 10:34:13;;;;;;;21.45;6.57;;;3.50;99.90;;;;;;7364153;19;20815;-67
2024/01/12 10:37:04;;;;;;;17.38;6.45;;;3.50;99.90;;;;;;7362530;19;20018;-67
2024/01/12 10:39:51;;;;;;;13.45;5.38;;;3.70;99.90;;;;;;7369093;19;20015;-77
2024/01/12 10:42:20;;;;;;;14.10;5.72;;;3.70;99.90;;;;;;7370254;19;20015;-77
2024/01/12 10:44:50;;;;;;;16.75;5.60;;;3.80;99.90;;;;;;7368123;19;20533;-77
2024/01/12 10:47:20;;;;;;;17.50;5.53;;;3.90;99.90;;;;;;7374136;19;20445;-76
2024/01/12 10:50:09;;;;;;;15.98;5.28;;;4.00;99.90;;;;;;7370147;19;20880;-76
2024/01/12 10:52:47;;;;;;;22.23;5.80;;;4.10;99.90;;;;;;7371724;19;20027;-77
2024/01/12 10:55:37;;;;;;;15.18;4.32;;;4.10;99.90;;;;;;7369185;19;20022;-77
2024/01/12 10:58:03;;;;;;;18.42;4.68;;;4.20;99.90;;;;;;7364586;19;20042;-67
2024/01/12 11:00:33;;;;;;;21.95;4.70;;;4.30;99.90;;;;;;7369000;19;20094;-67
2024/01/12 11:03:02;;;;;;;22.88;6.20;;;4.30;99.90;;;;;;7367718;19;20471;-67
2024/01/12 11:05:29;;;;;;;22.67;4.63;;;4.30;99.90;;;;;;7369665;19;20379;-75
2024/01/12 11:07:58;;;;;;;20.08;4.57;;;4.40;99.90;;;;;;7363129;19;20018;-73
2024/01/12 11:10:27;;;;;;;20.77;4.55;;;4.50;99.90;;;;;;7368124;19;20054;-73
2024/01/12 11:12:54;;;;;;;18.02;4.47;;;4.40;99.90;;;;;;7368147;19;20038;-74
2024/01/12 11:15:20;;;;;;;20.08;5.75;;;4.50;99.90;;;;;;7368264;19;20022;-74
2024/01/12 11:17:48;;;;;;;15.75;5.22;;;4.40;99.90;;;;;;7366915;19;20014;-67
2024/01/12 11:20:19;;;;;;;20.08;5.70;;;4.40;99.90;;;;;;7367192;19;20089;-67
2024/01/12 11:23:08;;;;;;;18.50;4.95;;;4.40;99.90;;;;;;7369103;19;20023;-67
2024/01/12 11:25:34;;;;;;;21.13;4.35;;;4.30;99.90;;;;;;7368615;19;20019;-73
2024/01/12 11:28:01;;;;;;;20.30;4.50;;;4.40;99.90;;;;;;7365479;19;20021;-74
2024/01/12 11:30:50;;;;;;;21.20;3.80;;;4.50;99.90;;;;;;7368107;19;20747;-73
2024/01/12 11:33:20;;;;;;;21.05;4.03;;;4.50;99.90;;;;;;7369945;19;20026;-68
2024/01/12 11:35:51;;;;;;;16.75;4.05;;;4.60;99.90;;;;;;7367514;19;20023;-74
2024/01/12 11:38:19;;;;;;;24.52;4.60;;;4.70;99.90;;;;;;7371603;19;20011;-73
2024/01/12 11:40:49;;;;;;;16.58;4.10;;;4.70;99.90;;;;;;7376217;19;20015;-73
2024/01/12 11:43:19;;;;;;;17.83;3.97;;;4.70;99.90;;;;;;7365097;19;20488;-75
2024/01/12 11:45:47;;;;;;;23.08;5.03;;;4.70;99.90;;;;;;7367141;19;20015;-73
2024/01/12 11:48:15;;;;;;;17.73;4.10;;;4.70;99.90;;;;;;7363047;19;20018;-74
2024/01/12 11:50:42;;;;;;;17.58;3.83;;;4.70;99.90;;;;;;7364777;19;20041;-72
2024/01/12 11:53:08;;;;;;;23.48;4.28;;;4.70;99.90;;;;;;7367285;19;20638;-73
2024/01/12 11:55:38;;;;;;;24.85;4.50;;;4.80;99.90;;;;;;7361163;19;20037;-73
2024/01/12 11:58:04;;;;;;;17.63;4.22;;;4.90;99.90;;;;;;7362963;19;20045;-73
2024/01/12 12:00:30;;;;;;;19.98;4.85;;;4.90;99.90;;;;;;7364545;19;20086;-73
2024/01/12 12:02:56;;;;;;;18.08;3.70;;;4.90;99.90;;;;;;7371992;19;20061;-72
2024/01/12 12:05:23;;;;;;;18.10;4.18;;;5.00;99.90;;;;;;7372600;19;20458;-73
2024/01/12 12:07:49;;;;;;;20.48;4.57;;;5.00;99.90;;;;;;7377373;19;20502;-75
2024/01/12 12:10:15;;;;;;;21.60;4.13;;;4.90;99.90;;;;;;7372127;19;20100;-74
2024/01/12 12:12:41;;;;;;;17.75;4.30;;;5.00;99.90;;;;;;7374357;19;20958;-72
2024/01/12 12:15:12;;;;;;;13.43;3.15;;;4.90;99.90;;;;;;7370541;19;20041;-72
2024/01/12 12:17:42;;;;;;;21.95;4.20;;;4.90;99.90;;;;;;7375159;19;20498;-72
2024/01/12 12:20:12;;;;;;;16.85;4.40;;;4.90;99.90;;;;;;7373433;19;20023;-72
2024/01/12 12:22:45;;;;;;;17.45;4.10;;;4.90;99.90;;;;;;7374470;19;20019;-72
2024/01/12 12:25:14;;;;;;;16.95;3.60;;;4.90;99.90;;;;;;7373234;19;20041;-72
2024/01/12 12:27:46;;;;;;;18.65;3.90;;;4.80;99.90;;;;;;7376394;19;20019;-72
2024/01/12 12:30:15;;;;;;;22.60;4.28;;;4.80;99.90;;;;;;7372167;19;20041;-72
2024/01/12 12:32:45;;;;;;;18.52;4.82;;;4.80;99.90;;;;;;7375626;19;20106;-73
2024/01/12 12:35:17;;;;;;;21.35;5.35;;;4.80;99.90;;;;;;7372661;19;20057;-73
2024/01/12 12:37:44;;;;;;;19.70;4.45;;;4.80;99.90;;;;;;7377686;19;20387;-71
2024/01/12 12:40:12;;;;;;;19.67;4.47;;;4.80;99.90;;;;;;7372179;19;20018;-72
2024/01/12 12:42:43;;;;;;;16.38;3.65;;;4.80;99.90;;;;;;7375514;19;20014;-73
2024/01/12 12:45:10;;;;;;;27.27;4.53;;;4.80;99.90;;;;;;7372935;19;20479;-66
2024/01/12 12:47:37;;;;;;;21.65;4.13;;;4.80;99.90;;;;;;7372895;19;20551;-67
2024/01/12 12:50:05;;;;;;;22.13;4.05;;;4.80;99.90;;;;;;7372176;19;20019;-65